sensor_id;sensor_type;location;lat;lon;timestamp;pressure;altitude;pressure_sealevel;temperature;humidity
11302;BME280;5706;50.650;13.380;2022-12-18T00:17:26;56413.72;;;-140.63;68.51
11302;BME280;5706;50.650;13.380;2022-12-18T00:19:53;56415.72;;;-140.63;67.93
11302;BME280;5706;50.650;13.380;2022-12-18T03:02:50;56409.75;;;-140.63;65.08
11302;BME280;5706;50.650;13.380;2022-12-18T03:05:27;56439.56;;;-140.63;64.66
11302;BME280;5706;50.650;13.380;2022-12-18T03:08:03;56371.97;;;-140.63;65.13
11302;BME280;5706;50.650;13.380;2022-12-18T03:10:39;56417.69;;;-140.63;64.59
11302;BME280;5706;50.650;13.380;2022-12-18T03:13:15;56356.06;;;-140.63;64.66
11302;BME280;5706;50.650;13.380;2022-12-18T03:15:49;56409.75;;;-140.63;63.76
11302;BME280;5706;50.650;13.380;2022-12-18T03:18:23;56403.78;;;-140.63;64.90
11302;BME280;5706;50.650;13.380;2022-12-18T03:20:55;56389.88;;;-140.63;64.71
11302;BME280;5706;50.650;13.380;2022-12-18T03:23:32;56387.88;;;-140.63;63.80
11302;BME280;5706;50.650;13.380;2022-12-18T03:26:07;56433.59;;;-140.63;64.40
11302;BME280;5706;50.650;13.380;2022-12-18T03:28:42;56391.84;;;-140.63;64.19
11302;BME280;5706;50.650;13.380;2022-12-18T03:31:16;56399.81;;;-140.63;63.85
11302;BME280;5706;50.650;13.380;2022-12-18T03:33:47;56377.94;;;-140.63;64.55
11302;BME280;5706;50.650;13.380;2022-12-18T03:36:19;56373.97;;;-140.63;65.20
11302;BME280;5706;50.650;13.380;2022-12-18T03:38:47;56399.81;;;-140.63;63.84
11302;BME280;5706;50.650;13.380;2022-12-18T03:41:18;56379.94;;;-140.63;64.00
11302;BME280;5706;50.650;13.380;2022-12-18T03:43:56;56387.88;;;-140.63;63.77
11302;BME280;5706;50.650;13.380;2022-12-18T03:46:38;56385.88;;;-140.63;64.62
11302;BME280;5706;50.650;13.380;2022-12-18T03:49:19;56413.72;;;-140.63;63.98
11302;BME280;5706;50.650;13.380;2022-12-18T03:51:54;56405.78;;;-140.63;64.19
11302;BME280;5706;50.650;13.380;2022-12-18T03:54:30;56419.69;;;-140.63;64.28
11302;BME280;5706;50.650;13.380;2022-12-18T03:57:05;56379.94;;;-140.63;64.42
11302;BME280;5706;50.650;13.380;2022-12-18T03:59:39;56373.97;;;-140.63;64.26
11302;BME280;5706;50.650;13.380;2022-12-18T04:02:10;56356.06;;;-140.63;64.05
11302;BME280;5706;50.650;13.380;2022-12-18T04:04:39;56381.91;;;-140.63;64.60
11302;BME280;5706;50.650;13.380;2022-12-18T04:07:09;56369.97;;;-140.63;63.71
11302;BME280;5706;50.650;13.380;2022-12-18T04:09:38;56419.69;;;-140.63;64.03
11302;BME280;5706;50.650;13.380;2022-12-18T04:12:08;56385.88;;;-140.63;64.25
11302;BME280;5706;50.650;13.380;2022-12-18T04:14:36;56385.88;;;-140.63;64.39
11302;BME280;5706;50.650;13.380;2022-12-18T04:17:04;56369.97;;;-140.63;64.43
11302;BME280;5706;50.650;13.380;2022-12-18T04:19:33;56369.97;;;-140.63;63.87
11302;BME280;5706;50.650;13.380;2022-12-18T04:22:01;56401.78;;;-140.63;64.14
11302;BME280;5706;50.650;13.380;2022-12-18T04:24:29;56379.94;;;-140.63;63.10
11302;BME280;5706;50.650;13.380;2022-12-18T04:26:57;56389.88;;;-140.63;63.80
11302;BME280;5706;50.650;13.380;2022-12-18T04:29:24;56399.81;;;-140.63;62.90
11302;BME280;5706;50.650;13.380;2022-12-18T04:31:52;56411.75;;;-140.63;62.36
11302;BME280;5706;50.650;13.380;2022-12-18T04:34:20;56423.66;;;-140.63;63.19
11302;BME280;5706;50.650;13.380;2022-12-18T04:36:50;56356.06;;;-140.63;63.88
11302;BME280;5706;50.650;13.380;2022-12-18T04:39:18;56407.75;;;-140.63;63.02
11302;BME280;5706;50.650;13.380;2022-12-18T04:41:45;56389.88;;;-140.63;63.76
11302;BME280;5706;50.650;13.380;2022-12-18T04:44:13;56373.97;;;-140.63;63.69
11302;BME280;5706;50.650;13.380;2022-12-18T04:46:41;56381.91;;;-140.63;63.67
11302;BME280;5706;50.650;13.380;2022-12-18T04:49:09;56411.75;;;-140.63;63.24
11302;BME280;5706;50.650;13.380;2022-12-18T04:51:38;56377.94;;;-140.63;63.53
11302;BME280;5706;50.650;13.380;2022-12-18T04:54:07;56373.97;;;-140.63;63.75
11302;BME280;5706;50.650;13.380;2022-12-18T04:56:35;56389.88;;;-140.63;64.17
11302;BME280;5706;50.650;13.380;2022-12-18T04:59:02;56375.94;;;-140.63;63.32
11302;BME280;5706;50.650;13.380;2022-12-18T05:01:30;56377.94;;;-140.63;63.32
11302;BME280;5706;50.650;13.380;2022-12-18T05:04:00;56360.03;;;-140.63;63.92
11302;BME280;5706;50.650;13.380;2022-12-18T05:06:31;56405.78;;;-140.63;63.75
11302;BME280;5706;50.650;13.380;2022-12-18T05:08:59;56377.94;;;-140.63;63.00
11302;BME280;5706;50.650;13.380;2022-12-18T05:11:28;56360.03;;;-140.63;63.10
11302;BME280;5706;50.650;13.380;2022-12-18T05:13:56;56377.94;;;-140.63;62.39
11302;BME280;5706;50.650;13.380;2022-12-18T05:16:24;56383.91;;;-140.63;62.51
11302;BME280;5706;50.650;13.380;2022-12-18T05:18:51;56369.97;;;-140.63;62.00
11302;BME280;5706;50.650;13.380;2022-12-18T05:21:19;56393.84;;;-140.63;63.30
11302;BME280;5706;50.650;13.380;2022-12-18T05:23:47;56405.78;;;-140.63;62.62
11302;BME280;5706;50.650;13.380;2022-12-18T05:26:17;56403.78;;;-140.63;62.21
11302;BME280;5706;50.650;13.380;2022-12-18T05:28:46;56391.84;;;-140.63;63.41
11302;BME280;5706;50.650;13.380;2022-12-18T05:31:14;56366.00;;;-140.63;63.18
11302;BME280;5706;50.650;13.380;2022-12-18T05:33:42;56379.94;;;-140.63;62.95
11302;BME280;5706;50.650;13.380;2022-12-18T05:36:10;56405.78;;;-140.63;63.32
11302;BME280;5706;50.650;13.380;2022-12-18T05:38:38;56377.94;;;-140.63;63.75
11302;BME280;5706;50.650;13.380;2022-12-18T05:41:08;56360.03;;;-140.63;62.78
11302;BME280;5706;50.650;13.380;2022-12-18T05:43:37;56407.75;;;-140.63;61.96
11302;BME280;5706;50.650;13.380;2022-12-18T05:46:09;56366.00;;;-140.63;61.92
11302;BME280;5706;50.650;13.380;2022-12-18T05:48:45;56411.75;;;-140.63;62.34
11302;BME280;5706;50.650;13.380;2022-12-18T05:51:15;56369.97;;;-140.63;63.50
11302;BME280;5706;50.650;13.380;2022-12-18T05:53:52;56405.78;;;-140.63;63.21
11302;BME280;5706;50.650;13.380;2022-12-18T05:56:22;56397.81;;;-140.63;62.34
11302;BME280;5706;50.650;13.380;2022-12-18T05:58:51;56381.91;;;-140.63;62.35
11302;BME280;5706;50.650;13.380;2022-12-18T06:01:23;56409.75;;;-140.63;61.91
11302;BME280;5706;50.650;13.380;2022-12-18T06:03:52;56395.84;;;-140.63;62.68
11302;BME280;5706;50.650;13.380;2022-12-18T06:06:23;56375.94;;;-140.63;62.21
11302;BME280;5706;50.650;13.380;2022-12-18T06:08:53;56411.75;;;-140.63;63.80
11302;BME280;5706;50.650;13.380;2022-12-18T06:11:25;56373.97;;;-140.63;64.16
11302;BME280;5706;50.650;13.380;2022-12-18T06:13:54;56375.94;;;-140.63;63.95
11302;BME280;5706;50.650;13.380;2022-12-18T06:16:24;56371.97;;;-140.63;63.54
11302;BME280;5706;50.650;13.380;2022-12-18T06:18:53;56377.94;;;-140.63;62.44
11302;BME280;5706;50.650;13.380;2022-12-18T06:21:22;56401.78;;;-140.63;63.67
11302;BME280;5706;50.650;13.380;2022-12-18T06:23:50;56389.88;;;-140.63;62.96
11302;BME280;5706;50.650;13.380;2022-12-18T06:26:18;56379.94;;;-140.63;63.54
11302;BME280;5706;50.650;13.380;2022-12-18T06:28:46;56395.84;;;-140.63;64.69
11302;BME280;5706;50.650;13.380;2022-12-18T06:31:16;56377.94;;;-140.63;63.80
11302;BME280;5706;50.650;13.380;2022-12-18T06:33:45;56385.88;;;-140.63;63.83
11302;BME280;5706;50.650;13.380;2022-12-18T06:36:13;56360.03;;;-140.63;64.01
11302;BME280;5706;50.650;13.380;2022-12-18T06:38:43;56381.91;;;-140.63;63.23
11302;BME280;5706;50.650;13.380;2022-12-18T06:41:12;56403.78;;;-140.63;63.38
11302;BME280;5706;50.650;13.380;2022-12-18T06:43:41;56373.97;;;-140.63;62.16
11302;BME280;5706;50.650;13.380;2022-12-18T06:46:10;56393.84;;;-140.63;62.93
11302;BME280;5706;50.650;13.380;2022-12-18T06:48:39;56395.84;;;-140.63;63.95
11302;BME280;5706;50.650;13.380;2022-12-18T06:51:08;56360.03;;;-140.63;63.34
11302;BME280;5706;50.650;13.380;2022-12-18T06:53:36;56366.00;;;-140.63;62.77
11302;BME280;5706;50.650;13.380;2022-12-18T06:56:06;56381.91;;;-140.63;63.96
11302;BME280;5706;50.650;13.380;2022-12-18T06:58:34;56366.00;;;-140.63;62.93
11302;BME280;5706;50.650;13.380;2022-12-18T07:01:03;56366.00;;;-140.63;63.74
11302;BME280;5706;50.650;13.380;2022-12-18T07:03:32;56379.94;;;-140.63;64.02
11302;BME280;5706;50.650;13.380;2022-12-18T07:06:00;56391.84;;;-140.63;63.89
11302;BME280;5706;50.650;13.380;2022-12-18T07:08:31;56405.78;;;-140.63;64.61
11302;BME280;5706;50.650;13.380;2022-12-18T07:10:58;56387.88;;;-140.63;63.28
11302;BME280;5706;50.650;13.380;2022-12-18T07:13:29;56366.00;;;-140.63;63.67
11302;BME280;5706;50.650;13.380;2022-12-18T07:16:06;56383.91;;;-140.63;63.75
11302;BME280;5706;50.650;13.380;2022-12-18T07:18:35;56407.75;;;-140.63;62.89
11302;BME280;5706;50.650;13.380;2022-12-18T07:21:04;56381.91;;;-140.63;63.08
11302;BME280;5706;50.650;13.380;2022-12-18T07:23:34;56403.78;;;-140.63;63.62
11302;BME280;5706;50.650;13.380;2022-12-18T07:26:02;56326.25;;;-140.63;63.59
11302;BME280;5706;50.650;13.380;2022-12-18T07:28:33;56397.81;;;-140.63;63.10
11302;BME280;5706;50.650;13.380;2022-12-18T07:31:02;56383.91;;;-140.63;63.83
11302;BME280;5706;50.650;13.380;2022-12-18T07:33:31;56375.94;;;-140.63;63.46
11302;BME280;5706;50.650;13.380;2022-12-18T07:35:59;56409.75;;;-140.63;63.28
11302;BME280;5706;50.650;13.380;2022-12-18T07:38:27;56397.81;;;-140.63;63.14
11302;BME280;5706;50.650;13.380;2022-12-18T07:41:00;56373.97;;;-140.63;63.03
11302;BME280;5706;50.650;13.380;2022-12-18T07:43:29;56395.84;;;-140.63;64.12
11302;BME280;5706;50.650;13.380;2022-12-18T07:45:57;56415.72;;;-140.63;64.60
11302;BME280;5706;50.650;13.380;2022-12-18T07:48:25;56403.78;;;-140.63;64.39
11302;BME280;5706;50.650;13.380;2022-12-18T07:50:55;56419.69;;;-140.63;64.92
11302;BME280;5706;50.650;13.380;2022-12-18T07:53:28;56354.06;;;-140.63;64.98
11302;BME280;5706;50.650;13.380;2022-12-18T07:55:58;56381.91;;;-140.63;64.02
11302;BME280;5706;50.650;13.380;2022-12-18T07:58:32;56366.00;;;-140.63;65.25
11302;BME280;5706;50.650;13.380;2022-12-18T08:01:04;56387.88;;;-140.63;65.21
11302;BME280;5706;50.650;13.380;2022-12-18T08:03:33;56375.94;;;-140.63;64.92
11302;BME280;5706;50.650;13.380;2022-12-18T08:06:02;56340.16;;;-140.63;64.54
11302;BME280;5706;50.650;13.380;2022-12-18T08:08:33;56407.75;;;-140.63;63.79
11302;BME280;5706;50.650;13.380;2022-12-18T08:11:03;56373.97;;;-140.63;64.06
11302;BME280;5706;50.650;13.380;2022-12-18T08:13:31;56385.88;;;-140.63;64.40
11302;BME280;5706;50.650;13.380;2022-12-18T08:16:00;56399.81;;;-140.63;66.81
11302;BME280;5706;50.650;13.380;2022-12-18T08:18:29;56385.88;;;-140.63;70.67
11302;BME280;5706;50.650;13.380;2022-12-18T08:21:08;56373.97;;;-140.63;70.52
11302;BME280;5706;50.650;13.380;2022-12-18T08:23:36;56383.91;;;-140.63;69.33
11302;BME280;5706;50.650;13.380;2022-12-18T08:26:05;56433.59;;;-140.63;69.50
11302;BME280;5706;50.650;13.380;2022-12-18T08:28:33;56377.94;;;-140.63;67.43
11302;BME280;5706;50.650;13.380;2022-12-18T08:31:01;56407.75;;;-140.63;67.43
11302;BME280;5706;50.650;13.380;2022-12-18T08:33:29;56383.91;;;-140.63;66.97
11302;BME280;5706;50.650;13.380;2022-12-18T08:35:58;56419.69;;;-140.63;68.71
11302;BME280;5706;50.650;13.380;2022-12-18T08:38:26;56377.94;;;-140.63;69.00
11302;BME280;5706;50.650;13.380;2022-12-18T08:40:58;56393.84;;;-140.63;69.12
11302;BME280;5706;50.650;13.380;2022-12-18T08:43:27;56397.81;;;-140.63;67.63
11302;BME280;5706;50.650;13.380;2022-12-18T08:46:19;56342.16;;;-140.63;67.91
11302;BME280;5706;50.650;13.380;2022-12-18T08:48:51;56393.84;;;-140.63;66.43
11302;BME280;5706;50.650;13.380;2022-12-18T08:51:20;56389.88;;;-140.63;67.16
11302;BME280;5706;50.650;13.380;2022-12-18T08:53:47;56387.88;;;-140.63;66.41
11302;BME280;5706;50.650;13.380;2022-12-18T08:56:16;56379.94;;;-140.63;66.03
11302;BME280;5706;50.650;13.380;2022-12-18T08:58:45;56366.00;;;-140.63;64.17
11302;BME280;5706;50.650;13.380;2022-12-18T09:01:13;56366.00;;;-140.63;60.01
11302;BME280;5706;50.650;13.380;2022-12-18T09:03:40;56397.81;;;-140.63;56.54
11302;BME280;5706;50.650;13.380;2022-12-18T09:06:08;56407.75;;;-140.63;55.73
11302;BME280;5706;50.650;13.380;2022-12-18T09:08:39;56411.75;;;-140.63;55.20
11302;BME280;5706;50.650;13.380;2022-12-18T09:11:12;56364.03;;;-140.63;54.28
11302;BME280;5706;50.650;13.380;2022-12-18T09:13:41;56397.81;;;-140.63;54.10
11302;BME280;5706;50.650;13.380;2022-12-18T09:16:10;56389.88;;;-140.63;56.16
11302;BME280;5706;50.650;13.380;2022-12-18T09:18:38;56397.81;;;-140.63;59.17
11302;BME280;5706;50.650;13.380;2022-12-18T09:21:10;56377.94;;;-140.63;60.15
11302;BME280;5706;50.650;13.380;2022-12-18T09:23:39;56366.00;;;-140.63;61.41
11302;BME280;5706;50.650;13.380;2022-12-18T09:26:08;56413.72;;;-140.63;61.32
11302;BME280;5706;50.650;13.380;2022-12-18T09:28:35;56399.81;;;-140.63;61.83
11302;BME280;5706;50.650;13.380;2022-12-18T09:31:05;56423.66;;;-140.63;62.29
11302;BME280;5706;50.650;13.380;2022-12-18T09:33:35;56383.91;;;-140.63;63.18
11302;BME280;5706;50.650;13.380;2022-12-18T09:36:05;56399.81;;;-140.63;63.01
11302;BME280;5706;50.650;13.380;2022-12-18T09:38:35;56375.94;;;-140.63;63.27
11302;BME280;5706;50.650;13.380;2022-12-18T09:41:05;56391.84;;;-140.63;63.02
11302;BME280;5706;50.650;13.380;2022-12-18T09:43:50;56405.78;;;-140.63;63.52
11302;BME280;5706;50.650;13.380;2022-12-18T09:46:36;56409.75;;;-140.63;62.78
11302;BME280;5706;50.650;13.380;2022-12-18T09:49:13;56433.59;;;-140.63;63.28
11302;BME280;5706;50.650;13.380;2022-12-18T09:51:47;56403.78;;;-140.63;62.95
11302;BME280;5706;50.650;13.380;2022-12-18T09:54:22;56387.88;;;-140.63;63.26
11302;BME280;5706;50.650;13.380;2022-12-18T09:56:53;56405.78;;;-140.63;63.26
11302;BME280;5706;50.650;13.380;2022-12-18T09:59:24;56371.97;;;-140.63;63.18
11302;BME280;5706;50.650;13.380;2022-12-18T10:01:54;56409.75;;;-140.63;63.42
11302;BME280;5706;50.650;13.380;2022-12-18T10:04:23;56417.69;;;-140.63;63.76
11302;BME280;5706;50.650;13.380;2022-12-18T10:06:56;56421.69;;;-140.63;63.69
11302;BME280;5706;50.650;13.380;2022-12-18T10:09:36;56405.78;;;-140.63;64.31
11302;BME280;5706;50.650;13.380;2022-12-18T10:12:12;56413.72;;;-140.63;64.62
11302;BME280;5706;50.650;13.380;2022-12-18T10:14:52;56383.91;;;-140.63;63.97
11302;BME280;5706;50.650;13.380;2022-12-18T10:17:33;56377.94;;;-140.63;64.24
11302;BME280;5706;50.650;13.380;2022-12-18T10:20:14;56429.63;;;-140.63;64.22
11302;BME280;5706;50.650;13.380;2022-12-18T10:22:50;56368.00;;;-140.63;64.15
11302;BME280;5706;50.650;13.380;2022-12-18T10:25:27;56415.72;;;-140.63;63.78
11302;BME280;5706;50.650;13.380;2022-12-18T10:28:07;56381.91;;;-140.63;63.42
11302;BME280;5706;50.650;13.380;2022-12-18T10:30:39;56405.78;;;-140.63;62.30
11302;BME280;5706;50.650;13.380;2022-12-18T10:33:10;56379.94;;;-140.63;61.72
11302;BME280;5706;50.650;13.380;2022-12-18T10:35:42;56375.94;;;-140.63;60.05
11302;BME280;5706;50.650;13.380;2022-12-18T10:38:24;56379.94;;;-140.63;58.60
11302;BME280;5706;50.650;13.380;2022-12-18T10:40:55;56405.78;;;-140.63;57.00
11302;BME280;5706;50.650;13.380;2022-12-18T10:43:26;56407.75;;;-140.63;54.13
11302;BME280;5706;50.650;13.380;2022-12-18T10:46:01;56409.75;;;-140.63;51.50
11302;BME280;5706;50.650;13.380;2022-12-18T10:48:41;56397.81;;;-140.63;49.58
11302;BME280;5706;50.650;13.380;2022-12-18T10:51:22;56381.91;;;-140.63;49.86
11302;BME280;5706;50.650;13.380;2022-12-18T10:53:54;56364.03;;;-140.63;51.64
11302;BME280;5706;50.650;13.380;2022-12-18T10:56:25;56397.81;;;-140.63;52.22
11302;BME280;5706;50.650;13.380;2022-12-18T10:58:57;56395.84;;;-140.63;50.73
11302;BME280;5706;50.650;13.380;2022-12-18T11:01:26;56375.94;;;-140.63;50.89
11302;BME280;5706;50.650;13.380;2022-12-18T11:04:07;56362.03;;;-140.63;49.59
11302;BME280;5706;50.650;13.380;2022-12-18T11:06:52;56381.91;;;-140.63;49.78
11302;BME280;5706;50.650;13.380;2022-12-18T11:09:23;56387.88;;;-140.63;50.17
11302;BME280;5706;50.650;13.380;2022-12-18T11:11:53;56409.75;;;-140.63;48.43
11302;BME280;5706;50.650;13.380;2022-12-18T11:14:24;56377.94;;;-140.63;50.14
11302;BME280;5706;50.650;13.380;2022-12-18T11:16:54;56393.84;;;-140.63;49.82
11302;BME280;5706;50.650;13.380;2022-12-18T11:19:31;56381.91;;;-140.63;50.21
11302;BME280;5706;50.650;13.380;2022-12-18T11:22:16;56399.81;;;-140.63;51.76
11302;BME280;5706;50.650;13.380;2022-12-18T11:24:52;56369.97;;;-140.63;49.61
11302;BME280;5706;50.650;13.380;2022-12-18T11:27:22;56371.97;;;-140.63;50.77
11302;BME280;5706;50.650;13.380;2022-12-18T11:29:51;56381.91;;;-140.63;53.35
11302;BME280;5706;50.650;13.380;2022-12-18T11:32:34;56387.88;;;-140.63;55.21
11302;BME280;5706;50.650;13.380;2022-12-18T11:35:11;56360.03;;;-140.63;52.97
11302;BME280;5706;50.650;13.380;2022-12-18T11:37:48;56344.13;;;-140.63;52.15
11302;BME280;5706;50.650;13.380;2022-12-18T11:40:27;56371.97;;;-140.63;53.11
11302;BME280;5706;50.650;13.380;2022-12-18T11:43:06;56346.13;;;-140.63;53.48
11302;BME280;5706;50.650;13.380;2022-12-18T11:45:41;56358.06;;;-140.63;55.93
11302;BME280;5706;50.650;13.380;2022-12-18T11:48:17;56395.84;;;-140.63;54.58
11302;BME280;5706;50.650;13.380;2022-12-18T11:50:51;56336.19;;;-140.63;54.83
11302;BME280;5706;50.650;13.380;2022-12-18T11:53:22;56340.16;;;-140.63;55.45
11302;BME280;5706;50.650;13.380;2022-12-18T11:56:00;56364.03;;;-140.63;58.31
11302;BME280;5706;50.650;13.380;2022-12-18T11:58:45;56397.81;;;-140.63;59.77
11302;BME280;5706;50.650;13.380;2022-12-18T12:01:33;56344.13;;;-140.63;58.90
11302;BME280;5706;50.650;13.380;2022-12-18T12:04:22;56356.06;;;-140.63;58.74
11302;BME280;5706;50.650;13.380;2022-12-18T12:07:17;56350.09;;;-140.63;58.11
11302;BME280;5706;50.650;13.380;2022-12-18T12:10:01;56377.94;;;-140.63;56.48
11302;BME280;5706;50.650;13.380;2022-12-18T12:12:45;56373.97;;;-140.63;54.80
11302;BME280;5706;50.650;13.380;2022-12-18T12:15:34;56334.19;;;-140.63;53.35
11302;BME280;5706;50.650;13.380;2022-12-18T12:18:18;56350.09;;;-140.63;53.00
11302;BME280;5706;50.650;13.380;2022-12-18T12:21:01;56354.06;;;-140.63;55.47
11302;BME280;5706;50.650;13.380;2022-12-18T12:23:40;56344.13;;;-140.63;56.95
11302;BME280;5706;50.650;13.380;2022-12-18T12:26:19;56385.88;;;-140.63;58.59
11302;BME280;5706;50.650;13.380;2022-12-18T12:29:03;56350.09;;;-140.63;60.03
11302;BME280;5706;50.650;13.380;2022-12-18T12:31:59;56344.13;;;-140.63;62.02
11302;BME280;5706;50.650;13.380;2022-12-18T12:34:38;56342.16;;;-140.63;61.06
11302;BME280;5706;50.650;13.380;2022-12-18T12:55:47;56419.69;;;-140.63;62.22
11302;BME280;5706;50.650;13.380;2022-12-18T12:58:20;56403.78;;;-140.63;62.29
11302;BME280;5706;50.650;13.380;2022-12-18T13:01:04;56391.84;;;-140.63;62.37
11302;BME280;5706;50.650;13.380;2022-12-18T13:04:06;56385.88;;;-140.63;62.67
11302;BME280;5706;50.650;13.380;2022-12-18T13:06:45;56373.97;;;-140.63;62.62
11302;BME280;5706;50.650;13.380;2022-12-18T13:09:20;56425.66;;;-140.63;62.81
11302;BME280;5706;50.650;13.380;2022-12-18T13:11:50;56352.09;;;-140.63;62.71
11302;BME280;5706;50.650;13.380;2022-12-18T13:14:36;56391.84;;;-140.63;62.55
11302;BME280;5706;50.650;13.380;2022-12-18T13:17:27;56385.88;;;-140.63;62.18
11302;BME280;5706;50.650;13.380;2022-12-18T13:20:06;56397.81;;;-140.63;62.19
11302;BME280;5706;50.650;13.380;2022-12-18T13:22:38;56407.75;;;-140.63;62.66
11302;BME280;5706;50.650;13.380;2022-12-18T13:25:35;56417.69;;;-140.63;63.19
11302;BME280;5706;50.650;13.380;2022-12-18T13:28:13;56401.78;;;-140.63;62.60
11302;BME280;5706;50.650;13.380;2022-12-18T13:30:49;56415.72;;;-140.63;62.14
11302;BME280;5706;50.650;13.380;2022-12-18T13:33:49;56364.03;;;-140.63;62.84
11302;BME280;5706;50.650;13.380;2022-12-18T13:36:30;56377.94;;;-140.63;62.59
11302;BME280;5706;50.650;13.380;2022-12-18T13:39:32;56397.81;;;-140.63;62.06
11302;BME280;5706;50.650;13.380;2022-12-18T13:42:36;56441.56;;;-140.63;63.03
11302;BME280;5706;50.650;13.380;2022-12-18T13:45:42;56399.81;;;-140.63;63.41
11302;BME280;5706;50.650;13.380;2022-12-18T13:48:23;56433.59;;;-140.63;63.70
11302;BME280;5706;50.650;13.380;2022-12-18T13:50:57;56407.75;;;-140.63;64.60
11302;BME280;5706;50.650;13.380;2022-12-18T13:53:30;56381.91;;;-140.63;63.63
11302;BME280;5706;50.650;13.380;2022-12-18T13:56:02;56391.84;;;-140.63;64.80
11302;BME280;5706;50.650;13.380;2022-12-18T13:58:30;56413.72;;;-140.63;65.18
11302;BME280;5706;50.650;13.380;2022-12-18T14:00:59;56413.72;;;-140.63;65.20
11302;BME280;5706;50.650;13.380;2022-12-18T14:03:30;56405.78;;;-140.63;65.20
11302;BME280;5706;50.650;13.380;2022-12-18T14:06:06;56421.69;;;-140.63;66.18
11302;BME280;5706;50.650;13.380;2022-12-18T14:08:38;56423.66;;;-140.63;66.48
11302;BME280;5706;50.650;13.380;2022-12-18T14:11:07;56409.75;;;-140.63;66.41
11302;BME280;5706;50.650;13.380;2022-12-18T14:13:47;56405.78;;;-140.63;67.23
11302;BME280;5706;50.650;13.380;2022-12-18T14:16:16;56421.69;;;-140.63;67.48
11302;BME280;5706;50.650;13.380;2022-12-18T14:18:46;56368.00;;;-140.63;68.42
11302;BME280;5706;50.650;13.380;2022-12-18T14:21:20;56413.72;;;-140.63;67.26
11302;BME280;5706;50.650;13.380;2022-12-18T14:24:03;56423.66;;;-140.63;68.07
11302;BME280;5706;50.650;13.380;2022-12-18T14:26:32;56409.75;;;-140.63;67.86
11302;BME280;5706;50.650;13.380;2022-12-18T14:29:17;56435.59;;;-140.63;68.19
11302;BME280;5706;50.650;13.380;2022-12-18T14:32:09;56391.84;;;-140.63;68.61
11302;BME280;5706;50.650;13.380;2022-12-18T14:34:39;56403.78;;;-140.63;68.04
11302;BME280;5706;50.650;13.380;2022-12-18T14:37:09;56393.84;;;-140.63;68.58
11302;BME280;5706;50.650;13.380;2022-12-18T14:39:38;56427.66;;;-140.63;69.08
11302;BME280;5706;50.650;13.380;2022-12-18T14:42:10;56387.88;;;-140.63;69.04
11302;BME280;5706;50.650;13.380;2022-12-18T14:44:38;56421.69;;;-140.63;69.28
11302;BME280;5706;50.650;13.380;2022-12-18T14:47:14;56443.56;;;-140.63;69.00
11302;BME280;5706;50.650;13.380;2022-12-18T14:49:43;56399.81;;;-140.63;69.14
11302;BME280;5706;50.650;13.380;2022-12-18T14:52:21;56385.88;;;-140.63;69.39
11302;BME280;5706;50.650;13.380;2022-12-18T14:54:53;56364.03;;;-140.63;69.36
11302;BME280;5706;50.650;13.380;2022-12-18T14:57:22;56433.59;;;-140.63;69.21
11302;BME280;5706;50.650;13.380;2022-12-18T14:59:52;56391.84;;;-140.63;69.58
11302;BME280;5706;50.650;13.380;2022-12-18T15:02:23;56407.75;;;-140.63;69.78
11302;BME280;5706;50.650;13.380;2022-12-18T15:05:00;56461.44;;;-140.63;69.59
11302;BME280;5706;50.650;13.380;2022-12-18T15:07:40;56443.56;;;-140.63;69.95
11302;BME280;5706;50.650;13.380;2022-12-18T15:10:12;56379.94;;;-140.63;70.91
11302;BME280;5706;50.650;13.380;2022-12-18T15:12:43;56405.78;;;-140.63;70.28
11302;BME280;5706;50.650;13.380;2022-12-18T15:15:47;56407.75;;;-140.63;70.68
11302;BME280;5706;50.650;13.380;2022-12-18T15:18:18;56403.78;;;-140.63;70.05
11302;BME280;5706;50.650;13.380;2022-12-18T15:20:49;56409.75;;;-140.63;70.42
11302;BME280;5706;50.650;13.380;2022-12-18T15:23:19;56439.56;;;-140.63;70.27
11302;BME280;5706;50.650;13.380;2022-12-18T15:25:55;56405.78;;;-140.63;70.41
11302;BME280;5706;50.650;13.380;2022-12-18T15:28:26;56413.72;;;-140.63;71.45
11302;BME280;5706;50.650;13.380;2022-12-18T15:30:59;56377.94;;;-140.63;71.82
11302;BME280;5706;50.650;13.380;2022-12-18T15:33:35;56405.78;;;-140.63;71.30
11302;BME280;5706;50.650;13.380;2022-12-18T15:36:07;56399.81;;;-140.63;71.79
11302;BME280;5706;50.650;13.380;2022-12-18T15:38:36;56423.66;;;-140.63;71.57
11302;BME280;5706;50.650;13.380;2022-12-18T15:41:05;56377.94;;;-140.63;72.15
11302;BME280;5706;50.650;13.380;2022-12-18T15:43:37;56379.94;;;-140.63;72.06
11302;BME280;5706;50.650;13.380;2022-12-18T15:46:05;56417.69;;;-140.63;72.11
11302;BME280;5706;50.650;13.380;2022-12-18T15:48:40;56439.56;;;-140.63;72.62
11302;BME280;5706;50.650;13.380;2022-12-18T15:51:13;56377.94;;;-140.63;72.71
11302;BME280;5706;50.650;13.380;2022-12-18T15:53:42;56435.59;;;-140.63;72.79
11302;BME280;5706;50.650;13.380;2022-12-18T15:56:11;56391.84;;;-140.63;73.16
11302;BME280;5706;50.650;13.380;2022-12-18T15:58:58;56411.75;;;-140.63;73.06
11302;BME280;5706;50.650;13.380;2022-12-18T16:01:27;56423.66;;;-140.63;72.64
11302;BME280;5706;50.650;13.380;2022-12-18T16:03:57;56429.63;;;-140.63;73.00
11302;BME280;5706;50.650;13.380;2022-12-18T16:06:25;56411.75;;;-140.63;72.99
11302;BME280;5706;50.650;13.380;2022-12-18T16:08:52;56393.84;;;-140.63;72.66
11302;BME280;5706;50.650;13.380;2022-12-18T16:11:22;56423.66;;;-140.63;72.51
11302;BME280;5706;50.650;13.380;2022-12-18T16:14:06;56419.69;;;-140.63;72.83
11302;BME280;5706;50.650;13.380;2022-12-18T16:16:39;56441.56;;;-140.63;72.90
11302;BME280;5706;50.650;13.380;2022-12-18T16:19:08;56417.69;;;-140.63;72.70
11302;BME280;5706;50.650;13.380;2022-12-18T16:21:35;56417.69;;;-140.63;71.83
11302;BME280;5706;50.650;13.380;2022-12-18T16:24:03;56395.84;;;-140.63;72.11
11302;BME280;5706;50.650;13.380;2022-12-18T16:26:31;56409.75;;;-140.63;72.91